createdAt,value
2022-11-30T00:01:22.301Z,0.71
2022-11-30T00:03:53.279Z,0.71
2022-11-30T00:06:23.582Z,0.73
2022-11-30T00:08:54.323Z,0.76
2022-11-30T00:11:23.345Z,0.70
2022-11-30T00:13:51.097Z,0.71
2022-11-30T00:16:18.459Z,0.71
2022-11-30T00:18:46.027Z,0.69
2022-11-30T00:21:15.511Z,0.57
2022-11-30T00:23:44.571Z,0.65
2022-11-30T00:26:14.446Z,0.64
2022-11-30T00:28:42.528Z,0.66
2022-11-30T00:31:14.998Z,0.67
2022-11-30T00:33:42.483Z,0.69
2022-11-30T00:36:14.159Z,0.66
2022-11-30T00:38:41.433Z,0.72
2022-11-30T00:41:09.865Z,0.73
2022-11-30T00:43:37.439Z,0.71
2022-11-30T00:46:05.246Z,0.65
2022-11-30T00:48:33.095Z,0.69
2022-11-30T00:51:00.492Z,0.63
2022-11-30T00:53:27.795Z,0.71
2022-11-30T00:55:55.262Z,0.62
2022-11-30T00:58:23.002Z,0.60
2022-11-30T01:00:50.520Z,0.64
2022-11-30T01:03:17.964Z,0.58
2022-11-30T01:05:45.627Z,0.63
2022-11-30T01:08:13.821Z,0.60
2022-11-30T01:10:43.094Z,0.63
2022-11-30T01:13:14.267Z,0.62
2022-11-30T01:15:44.702Z,0.59
2022-11-30T01:18:12.405Z,0.60
2022-11-30T01:20:43.864Z,0.61
2022-11-30T01:23:12.014Z,0.63
2022-11-30T01:25:39.859Z,0.61
2022-11-30T01:28:09.799Z,0.63
2022-11-30T01:30:36.913Z,0.64
2022-11-30T01:33:05.039Z,0.58
2022-11-30T01:35:32.460Z,0.45
2022-11-30T01:37:59.594Z,0.57
2022-11-30T01:40:26.926Z,0.53
2022-11-30T01:42:54.245Z,0.54
2022-11-30T01:45:22.246Z,0.59
2022-11-30T01:47:54.305Z,0.56
2022-11-30T01:50:27.283Z,0.56
2022-11-30T01:52:57.600Z,0.57
2022-11-30T01:55:30.228Z,0.51
2022-11-30T01:58:09.958Z,0.48
2022-11-30T02:00:37.798Z,0.47
2022-11-30T02:03:23.856Z,0.49
2022-11-30T02:05:51.665Z,0.53
2022-11-30T02:08:20.372Z,0.54
2022-11-30T02:10:54.948Z,0.61
2022-11-30T02:13:50.923Z,0.64
2022-11-30T02:17:01.485Z,0.60
2022-11-30T02:19:44.596Z,0.60
2022-11-30T02:22:24.128Z,0.59
2022-11-30T02:25:13.763Z,0.51
2022-11-30T02:27:47.410Z,0.59
2022-11-30T02:30:23.628Z,0.59
2022-11-30T02:33:14.932Z,0.65
2022-11-30T02:35:50.348Z,0.62
2022-11-30T02:38:24.852Z,0.56
2022-11-30T02:40:52.344Z,0.54
2022-11-30T02:43:23.052Z,0.61
2022-11-30T02:46:11.502Z,0.46
2022-11-30T02:48:39.055Z,0.50
2022-11-30T02:51:09.336Z,0.51
2022-11-30T02:53:37.348Z,0.53
2022-11-30T02:56:05.335Z,0.40
2022-11-30T02:58:32.535Z,0.42
2022-11-30T03:00:59.897Z,0.46
2022-11-30T03:03:27.362Z,0.50
2022-11-30T03:05:54.721Z,0.52
2022-11-30T03:08:22.442Z,0.56
2022-11-30T03:10:49.969Z,0.58
2022-11-30T03:13:17.723Z,0.52
2022-11-30T03:15:45.881Z,0.59
2022-11-30T03:18:14.610Z,0.59
2022-11-30T03:20:43.308Z,0.58
2022-11-30T03:23:11.170Z,0.64
2022-11-30T03:25:38.683Z,0.64
2022-11-30T03:28:06.335Z,0.67
2022-11-30T03:30:33.768Z,0.69
2022-11-30T03:33:01.164Z,0.68
2022-11-30T03:35:28.584Z,0.70
2022-11-30T03:37:56.001Z,0.72
2022-11-30T03:40:23.337Z,0.72
2022-11-30T03:42:50.822Z,0.64
2022-11-30T03:45:18.440Z,0.59
2022-11-30T03:47:46.029Z,0.64
2022-11-30T03:50:13.511Z,0.68
2022-11-30T03:52:41.017Z,0.63
2022-11-30T03:55:08.790Z,0.66
2022-11-30T03:57:36.464Z,0.67
2022-11-30T04:00:06.001Z,0.69
2022-11-30T04:02:44.328Z,0.66
2022-11-30T04:05:12.013Z,0.69
2022-11-30T04:07:39.211Z,0.70
2022-11-30T04:10:08.803Z,0.70
2022-11-30T04:12:36.265Z,0.73
2022-11-30T04:15:04.096Z,0.76
2022-11-30T04:17:31.348Z,0.77
2022-11-30T04:19:58.767Z,0.76
2022-11-30T04:22:26.059Z,0.78
2022-11-30T04:24:53.338Z,0.78
2022-11-30T04:27:20.521Z,0.80
2022-11-30T04:29:47.915Z,0.78
2022-11-30T04:32:15.051Z,0.71
2022-11-30T04:34:42.311Z,0.75
2022-11-30T04:37:09.504Z,0.79
2022-11-30T04:39:36.818Z,0.79
2022-11-30T04:42:04.546Z,0.78
2022-11-30T04:44:32.283Z,0.79
2022-11-30T04:46:59.392Z,0.77
2022-11-30T04:49:26.942Z,0.73
2022-11-30T04:51:53.916Z,0.74
2022-11-30T04:54:21.564Z,0.73
2022-11-30T04:56:48.821Z,0.72
2022-11-30T04:59:16.079Z,0.74
2022-11-30T05:01:43.306Z,0.69
2022-11-30T05:04:10.485Z,0.68
2022-11-30T05:06:37.611Z,0.66
2022-11-30T05:09:05.229Z,0.66
2022-11-30T05:11:32.470Z,0.60
2022-11-30T05:14:00.146Z,0.58
2022-11-30T05:16:27.472Z,0.54
2022-11-30T05:18:55.178Z,0.57
2022-11-30T05:21:22.635Z,0.56
2022-11-30T05:23:51.997Z,0.53
2022-11-30T05:26:19.443Z,0.53
2022-11-30T05:28:47.243Z,0.53
2022-11-30T05:31:15.556Z,0.52
2022-11-30T05:33:43.459Z,0.54
2022-11-30T05:36:11.686Z,0.56
2022-11-30T05:38:39.443Z,0.54
2022-11-30T05:41:07.822Z,0.53
2022-11-30T05:43:35.855Z,0.56
2022-11-30T05:46:06.290Z,0.57
2022-11-30T05:48:34.473Z,0.58
2022-11-30T05:51:06.890Z,0.58
2022-11-30T05:53:35.472Z,0.59
2022-11-30T05:56:10.240Z,0.57
2022-11-30T05:58:38.817Z,0.61
2022-11-30T06:01:07.340Z,0.62
2022-11-30T10:36:25.367Z,-2.10
2022-11-30T10:39:04.392Z,-1.89
2022-11-30T10:41:41.561Z,-1.80
2022-11-30T10:44:24.488Z,-1.54
2022-11-30T10:47:00.305Z,-1.26
2022-11-30T10:49:30.898Z,-1.18
2022-11-30T10:52:06.450Z,-1.02
2022-11-30T10:54:37.046Z,-0.75
2022-11-30T10:57:07.218Z,-0.52
2022-11-30T10:59:49.391Z,-0.30
2022-11-30T11:02:41.810Z,-0.22
2022-11-30T11:05:26.853Z,-0.42
2022-11-30T11:08:07.220Z,-0.65
2022-11-30T11:10:36.944Z,-0.50
2022-11-30T11:13:05.807Z,-0.25
2022-11-30T11:15:35.385Z,-0.10
2022-11-30T11:18:32.608Z,-0.04
2022-11-30T11:21:06.307Z,0.26
2022-11-30T11:23:44.122Z,0.04
2022-11-30T11:26:28.588Z,-0.09
2022-11-30T11:28:59.874Z,-0.39
2022-11-30T11:31:33.747Z,-0.25
2022-11-30T11:34:02.545Z,-0.33
2022-11-30T11:36:34.909Z,-0.26
2022-11-30T11:39:04.808Z,-0.55
2022-11-30T11:41:35.360Z,-0.38
2022-11-30T11:44:11.787Z,-0.57
2022-11-30T11:47:02.028Z,-0.88
2022-11-30T11:49:32.325Z,-1.14
2022-11-30T11:52:02.542Z,-1.25
2022-11-30T11:54:39.942Z,-1.26
2022-11-30T11:57:13.563Z,-1.48
2022-11-30T12:00:19.518Z,-1.34
2022-11-30T12:03:04.407Z,-1.22
2022-11-30T12:05:38.557Z,-1.12
2022-11-30T12:08:11.306Z,-1.13
2022-11-30T12:10:54.883Z,-1.12
2022-11-30T12:13:29.206Z,-0.95
2022-11-30T12:16:19.355Z,-0.98
2022-11-30T12:19:14.712Z,-0.65
2022-11-30T12:22:06.727Z,-0.66
2022-11-30T12:25:00.037Z,-0.54
2022-11-30T12:27:38.770Z,-0.44
2022-11-30T12:30:10.304Z,-0.50
2022-11-30T12:32:50.424Z,-0.75
2022-11-30T12:35:44.861Z,-0.72
2022-11-30T12:38:26.787Z,-0.54
2022-11-30T12:41:24.164Z,-0.43
2022-11-30T12:44:06.577Z,-0.33
2022-11-30T12:46:52.879Z,-0.65
2022-11-30T12:49:50.701Z,-0.49
2022-11-30T12:52:24.446Z,-0.71
2022-11-30T12:54:55.170Z,-0.66
2022-11-30T12:57:38.860Z,-0.69
2022-11-30T13:00:17.783Z,-0.98
2022-11-30T13:03:06.585Z,-1.13
2022-11-30T13:05:44.242Z,-1.41
2022-11-30T13:08:24.429Z,-1.57
2022-11-30T13:10:57.189Z,-1.42
2022-11-30T13:13:32.772Z,-1.40
2022-11-30T13:16:05.564Z,-1.35
2022-11-30T13:18:35.440Z,-1.63
2022-11-30T13:21:09.120Z,-1.62
2022-11-30T13:23:38.865Z,-1.77
2022-11-30T13:26:32.781Z,-1.68
2022-11-30T13:29:24.405Z,-1.69
2022-11-30T13:32:33.973Z,-1.85
2022-11-30T13:35:30.671Z,-1.92
2022-11-30T13:38:35.661Z,-2.07
2022-11-30T13:41:08.360Z,-2.29
2022-11-30T13:43:46.335Z,-2.04
2022-11-30T13:46:22.482Z,-2.05
2022-11-30T13:49:09.860Z,-2.16
2022-11-30T13:51:40.822Z,-2.35
2022-11-30T13:54:40.785Z,-2.19
2022-11-30T13:57:26.311Z,-2.24
2022-11-30T14:00:25.890Z,-2.30
2022-11-30T14:02:55.137Z,-2.40
2022-11-30T14:05:36.809Z,-2.48
2022-11-30T14:08:07.257Z,-2.56
2022-11-30T18:27:43.320Z,-5.08
2022-11-30T18:30:10.428Z,-4.95
2022-11-30T18:32:36.813Z,-4.79
2022-11-30T18:35:05.377Z,-4.64
2022-11-30T18:37:34.282Z,-4.48
2022-11-30T18:40:02.315Z,-4.30
2022-11-30T18:42:29.457Z,-4.19
2022-11-30T18:44:56.976Z,-4.00
2022-11-30T18:47:24.133Z,-3.94
2022-11-30T18:49:51.166Z,-3.77
2022-11-30T18:52:18.699Z,-3.63
2022-11-30T18:54:46.342Z,-3.52
2022-11-30T18:57:14.154Z,-3.51
2022-11-30T18:59:41.652Z,-3.40
2022-11-30T19:02:12.101Z,-3.27
2022-11-30T19:04:39.689Z,-3.29
2022-11-30T19:07:07.105Z,-3.14
2022-11-30T19:09:34.531Z,-3.22
2022-11-30T19:12:01.603Z,-3.13
2022-11-30T19:14:29.230Z,-3.18
2022-11-30T19:16:56.527Z,-3.00
2022-11-30T19:19:23.798Z,-3.04
2022-11-30T19:21:51.354Z,-3.05
2022-11-30T19:24:19.201Z,-3.13
2022-11-30T19:26:46.774Z,-3.11
2022-11-30T19:29:14.872Z,-3.12
2022-11-30T19:31:42.271Z,-3.16
2022-11-30T19:34:13.033Z,-3.08
2022-11-30T19:36:41.056Z,-3.02
2022-11-30T19:39:08.561Z,-2.93
2022-11-30T19:41:35.956Z,-3.16
2022-11-30T19:44:04.413Z,-3.10
2022-11-30T19:46:33.419Z,-3.07
2022-11-30T19:49:02.206Z,-3.06
2022-11-30T19:51:31.008Z,-3.01
2022-11-30T19:54:01.818Z,-3.00
2022-11-30T19:56:31.478Z,-3.02
2022-11-30T19:59:04.433Z,-2.97
2022-11-30T20:01:33.558Z,-2.95
2022-11-30T20:04:01.255Z,-2.96
2022-11-30T20:06:32.201Z,-3.06
2022-11-30T20:08:59.697Z,-3.02
2022-11-30T20:11:26.903Z,-3.05
2022-11-30T20:13:54.617Z,-3.08
2022-11-30T20:16:23.180Z,-3.11
2022-11-30T20:18:56.433Z,-2.94
2022-11-30T20:21:28.872Z,-2.97
2022-11-30T20:23:59.376Z,-3.02
2022-11-30T20:26:35.656Z,-2.99
2022-11-30T20:29:05.619Z,-2.93
2022-11-30T20:31:35.616Z,-2.92
2022-11-30T20:34:03.522Z,-3.02
2022-11-30T20:36:31.490Z,-3.02
2022-11-30T20:38:59.700Z,-2.92
2022-11-30T20:41:27.476Z,-2.93
2022-11-30T20:43:55.766Z,-3.04
2022-11-30T20:46:24.550Z,-2.94
2022-11-30T20:48:52.619Z,-2.98
2022-11-30T20:51:33.431Z,-2.99
2022-11-30T20:54:04.095Z,-2.98
2022-11-30T20:56:31.757Z,-2.98
2022-11-30T20:59:04.312Z,-2.91
2022-11-30T21:01:32.200Z,-2.81
2022-11-30T21:04:01.128Z,-2.80
2022-11-30T21:06:32.351Z,-2.79
2022-11-30T21:09:00.028Z,-2.74
2022-11-30T21:11:28.701Z,-2.59
2022-11-30T21:13:57.761Z,-2.85
2022-11-30T21:16:29.472Z,-2.83
2022-11-30T21:18:59.383Z,-2.93
2022-11-30T21:21:31.107Z,-2.93
2022-11-30T21:24:00.988Z,-2.85
2022-11-30T21:26:31.952Z,-2.90
2022-11-30T21:29:06.035Z,-2.88
2022-11-30T21:31:34.062Z,-2.92
2022-11-30T21:34:01.759Z,-2.93
2022-11-30T21:36:29.426Z,-2.85
2022-11-30T21:39:05.627Z,-2.87
2022-11-30T21:41:36.236Z,-2.91
2022-11-30T21:44:04.646Z,-3.00
2022-11-30T21:46:33.185Z,-2.84
2022-11-30T21:49:00.922Z,-2.87
2022-11-30T21:51:30.000Z,-2.73
2022-11-30T21:53:59.487Z,-2.80
2022-11-30T21:56:29.527Z,-2.75
2022-11-30T21:58:57.431Z,-2.80
2022-11-30T22:01:34.846Z,-2.82
2022-11-30T22:04:03.860Z,-2.86
2022-11-30T22:06:33.822Z,-2.79
2022-11-30T22:09:07.804Z,-2.77
2022-11-30T22:11:36.919Z,-2.91
2022-11-30T22:14:04.324Z,-2.78
2022-11-30T22:16:35.770Z,-2.77
2022-11-30T22:19:07.018Z,-2.64
2022-11-30T22:21:35.042Z,-2.76
2022-11-30T22:24:04.834Z,-2.64
2022-11-30T22:26:37.714Z,-2.71
2022-11-30T22:29:27.188Z,-2.77
2022-11-30T22:31:54.553Z,-2.65
2022-11-30T22:34:22.140Z,-2.77
2022-11-30T22:36:49.460Z,-2.65
2022-11-30T22:39:19.302Z,-2.60
2022-11-30T22:41:54.260Z,-2.48
2022-11-30T22:44:23.026Z,-2.59
2022-11-30T22:46:50.339Z,-2.60
2022-11-30T22:49:21.118Z,-2.54
2022-11-30T22:51:50.550Z,-2.67
2022-11-30T22:54:18.618Z,-2.64
2022-11-30T22:56:46.903Z,-2.73
2022-11-30T22:59:14.976Z,-2.75
2022-11-30T23:01:47.271Z,-2.64
2022-11-30T23:04:16.807Z,-2.61
2022-11-30T23:06:46.605Z,-2.62
2022-11-30T23:09:19.790Z,-2.58
2022-11-30T23:11:48.114Z,-2.60
2022-11-30T23:14:16.560Z,-2.61
2022-11-30T23:16:45.136Z,-2.54
2022-11-30T23:19:13.552Z,-2.50
2022-11-30T23:21:42.509Z,-2.42
2022-11-30T23:24:14.567Z,-2.42
2022-11-30T23:26:42.921Z,-2.56
2022-11-30T23:29:14.131Z,-2.60
2022-11-30T23:31:42.668Z,-2.48
2022-11-30T23:34:13.444Z,-2.54
2022-11-30T23:36:40.453Z,-2.40
2022-11-30T23:39:10.470Z,-2.51
2022-11-30T23:41:38.078Z,-2.50
2022-11-30T23:44:05.772Z,-2.41
2022-11-30T23:46:33.363Z,-2.43
2022-11-30T23:49:00.395Z,-2.45
2022-11-30T23:51:27.818Z,-2.58
2022-11-30T23:53:55.333Z,-2.56
2022-11-30T23:56:24.700Z,-2.45
2022-11-30T23:58:52.379Z,-2.62
